Time;durP1;ratioP1;P1;durP2;ratioP2;P2;SDS_P1;SDS_P2;PMS_P1;PMS_P2;Temp;Humidity;BMP_temperature;BMP_pressure;BME280_temperature;BME280_humidity;BME280_pressure;Samples;Min_cycle;Max_cycle;Signal;HPM_P1;HPM_P2
2024/01/25 07:02:43;;;;;;;;;73.50;58.50;;;;;;;;5064758;28;13551;-71
2024/01/25 07:05:08;;;;;;;;;70.00;57.67;;;;;;;;5067735;28;8789;-73
2024/01/25 07:07:34;;;;;;;;;61.33;50.33;;;;;;;;5067377;28;8819;-78
2024/01/25 07:09:59;;;;;;;;;62.67;49.00;;;;;;;;5067982;28;8797;-77
2024/01/25 07:12:24;;;;;;;;;82.25;61.50;;;;;;;;5068131;28;9020;-76
2024/01/25 07:14:50;;;;;;;;;75.67;60.00;;;;;;;;5068039;28;8797;-76
2024/01/25 07:17:15;;;;;;;;;76.00;60.50;;;;;;;;5071188;22;8920;-74
2024/01/25 07:19:40;;;;;;;;;75.00;61.00;;;;;;;;5047223;28;8820;-74
2024/01/25 07:22:06;;;;;;;;;75.33;58.33;;;;;;;;5047694;28;8804;-73
2024/01/25 07:24:31;;;;;;;;;72.67;58.67;;;;;;;;5047522;28;8846;-73
2024/01/25 07:26:57;;;;;;;;;76.67;57.67;;;;;;;;5047378;28;8804;-77
2024/01/25 07:29:22;;;;;;;;;73.33;57.00;;;;;;;;5047863;28;8780;-77
2024/01/25 07:31:47;;;;;;;;;69.33;55.67;;;;;;;;5047381;28;8891;-77
2024/01/25 07:34:13;;;;;;;;;69.00;57.00;;;;;;;;5047146;28;8915;-76
2024/01/25 07:36:38;;;;;;;;;71.00;58.00;;;;;;;;5047302;28;8853;-76
2024/01/25 07:39:03;;;;;;;;;72.33;58.67;;;;;;;;5047373;28;8903;-75
2024/01/25 07:41:29;;;;;;;;;74.33;58.67;;;;;;;;5047151;28;8816;-76
2024/01/25 07:43:55;;;;;;;;;72.33;58.00;;;;;;;;5045787;28;8800;-76
2024/01/25 07:46:20;;;;;;;;;41.00;33.33;;;;;;;;5047157;28;9525;-75
2024/01/25 07:48:45;;;;;;;;;72.00;59.00;;;;;;;;5046705;28;8792;-75
2024/01/25 07:51:13;;;;;;;;;74.00;58.33;;;;;;;;5046814;28;8830;-76
2024/01/25 07:53:38;;;;;;;;;72.00;57.00;;;;;;;;5047013;28;8772;-77
2024/01/25 07:56:03;;;;;;;;;68.67;55.67;;;;;;;;5047032;28;8926;-76
2024/01/25 07:58:30;;;;;;;;;73.00;58.00;;;;;;;;5046809;28;8877;-76
2024/01/25 08:00:55;;;;;;;;;71.67;58.33;;;;;;;;5046725;28;8897;-76
2024/01/25 08:03:21;;;;;;;;;72.00;58.33;;;;;;;;5046668;28;8808;-77
2024/01/25 08:05:46;;;;;;;;;76.67;60.67;;;;;;;;5045242;28;8847;-77
2024/01/25 08:08:11;;;;;;;;;77.33;62.00;;;;;;;;5046775;28;8846;-75
2024/01/25 08:10:37;;;;;;;;;80.67;62.67;;;;;;;;5046738;28;8911;-75
2024/01/25 08:13:02;;;;;;;;;83.67;63.67;;;;;;;;5039006;28;8784;-75
2024/01/25 08:15:28;;;;;;;;;79.00;61.33;;;;;;;;5031816;28;8832;-73
2024/01/25 08:17:53;;;;;;;;;77.33;62.67;;;;;;;;5070095;23;8880;-77
2024/01/25 08:20:18;;;;;;;;;81.67;63.33;;;;;;;;5070607;28;8806;-78
2024/01/25 08:22:44;;;;;;;;;77.67;62.00;;;;;;;;5064114;28;8807;-77
2024/01/25 08:25:09;;;;;;;;;80.33;63.33;;;;;;;;5073504;28;8809;-75
2024/01/25 08:27:35;;;;;;;;;80.00;61.33;;;;;;;;5073206;28;8801;-75
2024/01/25 08:30:00;;;;;;;;;80.00;61.33;;;;;;;;5073220;28;8805;-80
2024/01/25 08:32:25;;;;;;;;;85.00;64.67;;;;;;;;5072018;28;8836;-80
2024/01/25 08:34:51;;;;;;;;;81.33;63.33;;;;;;;;5072812;28;8909;-78
2024/01/25 08:37:16;;;;;;;;;79.67;62.67;;;;;;;;5072871;28;8806;-78
2024/01/25 08:39:43;;;;;;;;;77.00;61.00;;;;;;;;5073146;28;9594;-76
2024/01/25 08:42:08;;;;;;;;;82.00;64.33;;;;;;;;5072997;28;8999;-82
2024/01/25 08:44:33;;;;;;;;;78.00;62.33;;;;;;;;5071622;28;8798;-79
2024/01/25 08:46:59;;;;;;;;;76.33;60.67;;;;;;;;5071595;28;8803;-82
2024/01/25 08:49:24;;;;;;;;;74.33;59.33;;;;;;;;5071125;28;8779;-82
2024/01/25 08:51:50;;;;;;;;;80.33;62.33;;;;;;;;5035078;28;8802;-81
2024/01/25 08:54:15;;;;;;;;;80.00;64.00;;;;;;;;5053174;28;8839;-81
2024/01/25 08:56:40;;;;;;;;;80.00;63.00;;;;;;;;5053016;28;8830;-81
2024/01/25 08:59:07;;;;;;;;;81.33;63.33;;;;;;;;5052954;28;8763;-80
2024/01/25 09:01:32;;;;;;;;;81.33;64.67;;;;;;;;5052559;28;8862;-81
2024/01/25 09:04:02;;;;;;;;;85.33;65.33;;;;;;;;5052712;28;9512;-81
2024/01/25 09:06:27;;;;;;;;;84.00;64.33;;;;;;;;5052477;28;8861;-82
2024/01/25 09:08:52;;;;;;;;;82.67;66.33;;;;;;;;5052719;28;9476;-81
2024/01/25 09:11:18;;;;;;;;;75.67;61.33;;;;;;;;5052489;28;8809;-81
2024/01/25 09:13:45;;;;;;;;;84.33;65.00;;;;;;;;5052529;28;8858;-82
2024/01/25 19:23:13;;;;;;;;;68.33;55.67;;;;;;;;5100960;27;14462;-74
2024/01/25 19:25:38;;;;;;;;;67.00;54.67;;;;;;;;5099088;28;8915;-72
2024/01/25 19:28:03;;;;;;;;;64.00;50.33;;;;;;;;5086752;28;8798;-71
2024/01/25 19:30:29;;;;;;;;;71.00;56.00;;;;;;;;5087836;28;8806;-70
2024/01/25 19:32:55;;;;;;;;;64.00;53.00;;;;;;;;5087897;28;8976;-70
2024/01/25 19:35:20;;;;;;;;;79.00;58.67;;;;;;;;5087783;28;9558;-71
2024/01/25 19:37:47;;;;;;;;;68.33;53.67;;;;;;;;5087959;28;8791;-72
2024/01/25 19:40:13;;;;;;;;;70.67;55.33;;;;;;;;5087753;28;8818;-72
2024/01/25 19:42:38;;;;;;;;;61.00;51.33;;;;;;;;5123370;27;9544;-72
2024/01/25 19:45:03;;;;;;;;;64.33;51.33;;;;;;;;5086601;28;8829;-72
2024/01/25 19:47:28;;;;;;;;;61.00;48.00;;;;;;;;5085764;28;8802;-73
2024/01/25 19:49:54;;;;;;;;;55.50;44.00;;;;;;;;5087431;28;8783;-70
2024/01/25 19:52:20;;;;;;;;;59.67;50.67;;;;;;;;5091438;28;9510;-71
2024/01/25 19:54:46;;;;;;;;;67.00;53.00;;;;;;;;5086794;28;9543;-70
2024/01/25 19:57:12;;;;;;;;;64.67;53.00;;;;;;;;5086979;28;8770;-71
2024/01/25 19:59:37;;;;;;;;;64.00;51.00;;;;;;;;5086926;28;8790;-71
2024/01/25 20:02:04;;;;;;;;;67.67;53.33;;;;;;;;5087321;28;8819;-71
2024/01/25 20:04:32;;;;;;;;;67.00;54.33;;;;;;;;5087212;28;8806;-71
2024/01/25 20:06:57;;;;;;;;;72.33;56.33;;;;;;;;5086526;28;8809;-75
2024/01/25 20:09:22;;;;;;;;;73.00;58.00;;;;;;;;5086605;28;8799;-73
2024/01/25 20:11:48;;;;;;;;;75.33;59.00;;;;;;;;5119642;28;9023;-71
2024/01/25 20:14:13;;;;;;;;;77.33;59.33;;;;;;;;5086987;28;8811;-71
2024/01/25 20:16:38;;;;;;;;;72.00;55.33;;;;;;;;5086336;28;8905;-70
2024/01/25 20:19:04;;;;;;;;;76.00;58.33;;;;;;;;5085095;28;8853;-70
2024/01/25 20:21:29;;;;;;;;;75.33;59.00;;;;;;;;5086359;28;8811;-72
2024/01/25 20:23:54;;;;;;;;;73.67;59.00;;;;;;;;5086630;28;8833;-77
2024/01/25 20:26:22;;;;;;;;;76.00;61.33;;;;;;;;5085544;28;8848;-78
2024/01/25 20:28:47;;;;;;;;;78.33;61.33;;;;;;;;5086415;28;8802;-81
2024/01/25 20:31:13;;;;;;;;;77.67;59.00;;;;;;;;5088200;28;8844;-77
2024/01/25 20:33:38;;;;;;;;;83.33;64.00;;;;;;;;5076374;28;8810;-77
2024/01/25 20:36:03;;;;;;;;;82.00;63.00;;;;;;;;5073037;28;8794;-76
2024/01/25 20:38:29;;;;;;;;;81.67;64.67;;;;;;;;5072603;28;9556;-77
2024/01/25 20:40:54;;;;;;;;;77.67;62.67;;;;;;;;5072851;28;8821;-78
2024/01/25 20:43:19;;;;;;;;;80.00;62.33;;;;;;;;5073222;28;8795;-77
2024/01/25 20:45:44;;;;;;;;;78.67;62.33;;;;;;;;5072373;28;8879;-80
2024/01/25 20:48:10;;;;;;;;;84.00;64.33;;;;;;;;5070961;28;8827;-80
2024/01/25 20:50:35;;;;;;;;;80.00;64.33;;;;;;;;5072919;28;8799;-85
2024/01/25 20:53:00;;;;;;;;;83.00;63.00;;;;;;;;5071080;28;8814;-82
2024/01/25 20:55:26;;;;;;;;;76.67;60.67;;;;;;;;5072129;28;8795;-77
2024/01/25 20:57:53;;;;;;;;;77.00;61.33;;;;;;;;5072452;28;8917;-77
2024/01/25 21:00:22;;;;;;;;;77.33;62.33;;;;;;;;5071886;28;8814;-79
2024/01/25 21:02:47;;;;;;;;;82.33;62.33;;;;;;;;5069707;28;8822;-77
2024/01/25 21:05:13;;;;;;;;;77.33;62.33;;;;;;;;5072108;28;9575;-77
2024/01/25 21:07:39;;;;;;;;;73.67;60.33;;;;;;;;5072380;28;8803;-77
2024/01/25 21:10:04;;;;;;;;;81.33;63.33;;;;;;;;5071917;28;8905;-75
2024/01/25 21:12:30;;;;;;;;;72.33;58.00;;;;;;;;5072101;28;8790;-71
2024/01/25 21:14:55;;;;;;;;;71.00;56.33;;;;;;;;5072372;28;8803;-70
2024/01/25 21:17:21;;;;;;;;;73.00;52.33;;;;;;;;5072457;28;8837;-72
2024/01/25 21:19:46;;;;;;;;;70.00;57.33;;;;;;;;5072446;28;8794;-72
2024/01/25 21:22:11;;;;;;;;;68.67;57.00;;;;;;;;5070937;28;8972;-73
2024/01/25 21:24:37;;;;;;;;;74.33;57.67;;;;;;;;5072113;28;8825;-72
2024/01/25 21:27:03;;;;;;;;;71.33;56.33;;;;;;;;5072292;28;8791;-72
2024/01/25 21:29:28;;;;;;;;;74.00;57.67;;;;;;;;5070660;28;8833;-72
2024/01/25 21:31:53;;;;;;;;;74.00;59.33;;;;;;;;5072111;28;9519;-72
2024/01/25 21:34:18;;;;;;;;;74.00;59.00;;;;;;;;5070879;28;8811;-73
2024/01/25 21:36:44;;;;;;;;;76.67;59.00;;;;;;;;5072057;28;8791;-73
2024/01/25 21:39:09;;;;;;;;;69.00;57.00;;;;;;;;5072011;28;8832;-70
2024/01/25 21:41:34;;;;;;;;;73.00;58.00;;;;;;;;5021552;28;11305;-73
2024/01/25 21:44:00;;;;;;;;;72.33;58.67;;;;;;;;5032034;28;8822;-71
2024/01/25 21:46:25;;;;;;;;;74.33;60.00;;;;;;;;5009664;28;8799;-72
2024/01/25 21:48:51;;;;;;;;;80.67;61.00;;;;;;;;5000923;28;8923;-71
2024/01/25 21:51:16;;;;;;;;;68.67;57.00;;;;;;;;4992463;28;8804;-77
2024/01/25 21:53:41;;;;;;;;;76.33;60.33;;;;;;;;4997584;28;8786;-74
2024/01/25 21:56:06;;;;;;;;;68.00;55.67;;;;;;;;5010780;28;8889;-72
2024/01/25 21:58:32;;;;;;;;;71.00;56.33;;;;;;;;5006397;28;8798;-73
2024/01/25 22:00:57;;;;;;;;;68.33;55.00;;;;;;;;5011336;28;8795;-73
2024/01/25 22:03:22;;;;;;;;;72.00;57.67;;;;;;;;5011987;28;8822;-72
2024/01/25 22:05:47;;;;;;;;;66.33;54.00;;;;;;;;5011567;28;8795;-71
2024/01/25 22:08:14;;;;;;;;;75.33;58.33;;;;;;;;5011215;28;8845;-73
2024/01/25 22:10:39;;;;;;;;;65.00;51.67;;;;;;;;5009901;28;8973;-72
2024/01/25 22:13:04;;;;;;;;;70.00;57.00;;;;;;;;5011325;28;8822;-74
2024/01/25 22:15:30;;;;;;;;;67.33;56.00;;;;;;;;5011044;28;8830;-73
2024/01/25 22:18:03;;;;;;;;;68.00;56.00;;;;;;;;5011936;28;9548;-74
2024/01/25 22:20:28;;;;;;;;;67.33;54.00;;;;;;;;5042782;28;9564;-73
2024/01/25 22:22:53;;;;;;;;;68.67;52.67;;;;;;;;5011081;28;8872;-74
2024/01/25 22:25:19;;;;;;;;;67.33;52.33;;;;;;;;5011440;28;8807;-74
2024/01/25 22:27:44;;;;;;;;;64.67;51.00;;;;;;;;5011495;28;8834;-75
2024/01/25 22:30:09;;;;;;;;;65.33;51.67;;;;;;;;5011458;28;8767;-74
2024/01/25 22:32:35;;;;;;;;;68.67;54.33;;;;;;;;5011288;28;8836;-73
2024/01/25 22:35:00;;;;;;;;;64.33;51.67;;;;;;;;5011113;28;8826;-74
2024/01/25 22:37:25;;;;;;;;;65.67;54.67;;;;;;;;5010795;28;8817;-73
2024/01/25 22:39:51;;;;;;;;;73.00;57.00;;;;;;;;5010918;28;8811;-73
2024/01/25 22:42:16;;;;;;;;;69.67;57.00;;;;;;;;5011188;28;8944;-72
2024/01/25 22:44:42;;;;;;;;;72.00;56.00;;;;;;;;5011136;28;8825;-72
2024/01/25 22:47:07;;;;;;;;;71.33;58.00;;;;;;;;5011455;28;8803;-73
2024/01/25 22:49:33;;;;;;;;;69.00;55.33;;;;;;;;5011044;28;8891;-74
2024/01/25 22:51:58;;;;;;;;;63.00;53.67;;;;;;;;5010587;28;8810;-74
2024/01/25 22:54:23;;;;;;;;;68.67;53.33;;;;;;;;5009244;28;8846;-74
2024/01/25 22:56:48;;;;;;;;;56.33;48.67;;;;;;;;5009766;28;8814;-74
2024/01/25 22:59:14;;;;;;;;;69.00;54.00;;;;;;;;5011182;28;8770;-74
2024/01/25 23:01:40;;;;;;;;;72.00;58.33;;;;;;;;5011135;28;8968;-74
2024/01/25 23:04:05;;;;;;;;;74.33;59.67;;;;;;;;5009861;28;8810;-74
2024/01/25 23:06:30;;;;;;;;;69.67;58.00;;;;;;;;5010949;28;8816;-74
2024/01/25 23:08:55;;;;;;;;;70.00;56.33;;;;;;;;5011052;28;8783;-74
2024/01/25 23:11:21;;;;;;;;;68.67;55.00;;;;;;;;5010947;28;8837;-74
2024/01/25 23:13:46;;;;;;;;;71.67;55.00;;;;;;;;5011015;28;8790;-74
2024/01/25 23:16:11;;;;;;;;;72.33;55.00;;;;;;;;5010720;28;9550;-73
2024/01/25 23:18:36;;;;;;;;;62.00;49.33;;;;;;;;5011434;28;8790;-73
2024/01/25 23:21:02;;;;;;;;;67.67;53.67;;;;;;;;5009252;28;9043;-73
2024/01/25 23:23:27;;;;;;;;;66.67;54.67;;;;;;;;5006191;28;8825;-76
2024/01/25 23:25:53;;;;;;;;;62.00;51.33;;;;;;;;4991131;28;8813;-73
2024/01/25 23:28:19;;;;;;;;;67.67;51.00;;;;;;;;4991186;28;8811;-73
2024/01/25 23:30:44;;;;;;;;;60.00;51.33;;;;;;;;4991124;28;8817;-73
2024/01/25 23:33:09;;;;;;;;;61.00;48.67;;;;;;;;4991060;28;8917;-73
2024/01/25 23:35:35;;;;;;;;;64.33;50.00;;;;;;;;4991116;28;8842;-74
2024/01/25 23:38:00;;;;;;;;;61.33;50.00;;;;;;;;4991134;28;8815;-74
2024/01/25 23:40:26;;;;;;;;;55.33;46.67;;;;;;;;4990936;28;8789;-74
2024/01/25 23:42:53;;;;;;;;;50.33;45.67;;;;;;;;4990973;28;8959;-73
2024/01/25 23:45:18;;;;;;;;;62.67;50.67;;;;;;;;5022462;28;8906;-73
2024/01/25 23:47:43;;;;;;;;;63.67;49.33;;;;;;;;4991236;28;9641;-73
